createdAt,value
2022-07-31T00:01:18.913Z,6.45
2022-07-31T00:03:46.884Z,4.40
2022-07-31T00:06:16.194Z,6.30
2022-07-31T00:08:44.091Z,6.10
2022-07-31T00:11:12.573Z,4.85
2022-07-31T00:13:57.363Z,8.15
2022-07-31T00:16:26.687Z,7.15
2022-07-31T00:18:54.682Z,6.18
2022-07-31T00:21:24.601Z,5.70
2022-07-31T00:23:52.581Z,6.80
2022-07-31T00:26:20.577Z,9.23
2022-07-31T00:28:48.745Z,7.32
2022-07-31T00:31:18.477Z,4.43
2022-07-31T00:33:46.375Z,6.13
2022-07-31T00:36:14.746Z,9.18
2022-07-31T00:38:44.208Z,6.10
2022-07-31T00:41:12.189Z,4.65
2022-07-31T00:43:40.389Z,9.63
2022-07-31T00:46:08.318Z,7.40
2022-07-31T00:48:42.589Z,8.07
2022-07-31T00:51:10.470Z,8.05
2022-07-31T00:53:38.369Z,7.22
2022-07-31T00:56:07.787Z,6.95
2022-07-31T00:58:35.834Z,4.97
2022-07-31T01:01:03.785Z,7.95
2022-07-31T01:03:32.305Z,11.43
2022-07-31T01:06:00.219Z,6.13
2022-07-31T01:08:28.107Z,5.10
2022-07-31T01:11:00.162Z,7.68
2022-07-31T01:13:36.457Z,7.25
2022-07-31T01:16:08.202Z,8.00
2022-07-31T01:18:38.349Z,5.43
2022-07-31T01:21:09.334Z,5.35
2022-07-31T01:23:55.233Z,9.23
2022-07-31T01:26:36.315Z,9.80
2022-07-31T01:29:15.131Z,6.55
2022-07-31T01:31:46.977Z,7.82
2022-07-31T01:34:23.157Z,8.88
2022-07-31T01:36:59.256Z,9.10
2022-07-31T01:39:33.861Z,7.63
2022-07-31T01:42:06.198Z,8.40
2022-07-31T01:49:37.326Z,7.20
2022-07-31T01:52:07.317Z,6.13
2022-07-31T01:54:36.209Z,6.82
2022-07-31T01:57:05.131Z,7.03
2022-07-31T01:59:35.199Z,7.68
2022-07-31T02:02:06.171Z,7.28
2022-07-31T02:04:38.923Z,7.15
2022-07-31T02:07:08.173Z,10.63
2022-07-31T02:09:36.945Z,7.90
2022-07-31T02:12:09.721Z,10.10
2022-07-31T02:14:40.624Z,8.93
2022-07-31T02:17:11.209Z,7.82
2022-07-31T02:19:41.746Z,5.82
2022-07-31T02:22:29.394Z,8.23
2022-07-31T02:24:57.527Z,6.43
2022-07-31T02:27:54.284Z,8.25
2022-07-31T02:30:17.986Z,8.20
2022-07-31T02:32:48.709Z,7.18
2022-07-31T02:35:18.688Z,8.82
2022-07-31T02:37:47.899Z,7.15
2022-07-31T02:40:17.137Z,7.53
2022-07-31T02:42:46.668Z,9.23
2022-07-31T02:45:16.598Z,5.82
2022-07-31T02:47:44.843Z,6.93
2022-07-31T02:50:17.043Z,7.03
2022-07-31T02:52:48.629Z,6.22
2022-07-31T02:55:17.044Z,7.70
2022-07-31T02:57:45.114Z,5.43
2022-07-31T03:00:22.934Z,6.50
2022-07-31T03:02:51.341Z,8.23
2022-07-31T03:05:20.980Z,6.47
2022-07-31T03:07:49.087Z,8.07
2022-07-31T03:10:17.266Z,6.47
2022-07-31T03:12:48.579Z,8.27
2022-07-31T03:15:18.070Z,7.07
2022-07-31T03:17:47.227Z,7.38
2022-07-31T03:20:16.279Z,8.10
2022-07-31T03:22:46.513Z,6.53
2022-07-31T03:25:21.214Z,7.70
2022-07-31T03:27:55.990Z,8.50
2022-07-31T03:30:25.960Z,9.52
2022-07-31T03:32:54.279Z,9.45
2022-07-31T03:35:22.259Z,8.20
2022-07-31T03:37:51.776Z,9.60
2022-07-31T03:40:19.960Z,8.48
2022-07-31T03:42:49.666Z,7.68
2022-07-31T03:45:18.506Z,8.27
2022-07-31T03:47:46.450Z,8.77
2022-07-31T03:50:15.750Z,8.40
2022-07-31T03:52:44.246Z,10.93
2022-07-31T03:55:13.750Z,13.70
2022-07-31T03:57:42.586Z,8.50
2022-07-31T04:00:16.899Z,11.57
2022-07-31T04:02:46.308Z,12.50
2022-07-31T04:05:14.291Z,13.00
2022-07-31T04:07:42.186Z,11.02
2022-07-31T04:10:11.030Z,14.65
2022-07-31T04:12:40.330Z,11.85
2022-07-31T04:15:08.885Z,14.25
2022-07-31T04:17:37.357Z,15.65
2022-07-31T04:20:06.203Z,18.15
2022-07-31T04:22:34.300Z,18.58
2022-07-31T04:25:03.379Z,17.73
2022-07-31T04:27:31.430Z,15.77
2022-07-31T04:30:00.690Z,18.60
2022-07-31T04:32:30.961Z,16.85
2022-07-31T04:34:59.038Z,23.25
2022-07-31T04:37:27.203Z,16.17
2022-07-31T04:39:55.174Z,16.70
2022-07-31T04:42:23.138Z,22.23
2022-07-31T04:44:51.068Z,20.45
2022-07-31T04:47:20.836Z,25.98
2022-07-31T04:49:48.732Z,20.70
2022-07-31T04:52:16.646Z,22.83
2022-07-31T04:54:44.547Z,21.20
2022-07-31T04:57:12.501Z,20.40
2022-07-31T04:59:59.554Z,24.27
2022-07-31T05:02:29.690Z,23.15
2022-07-31T05:04:57.713Z,20.98
2022-07-31T05:07:28.322Z,18.73
2022-07-31T05:09:57.173Z,27.75
2022-07-31T05:12:25.167Z,22.08
2022-07-31T05:14:53.492Z,20.63
2022-07-31T05:17:29.741Z,22.38
2022-07-31T05:19:59.051Z,29.33
2022-07-31T05:22:27.035Z,18.73
2022-07-31T05:24:55.063Z,25.25
2022-07-31T05:27:22.946Z,24.08
2022-07-31T05:29:51.099Z,26.25
2022-07-31T05:32:19.038Z,26.60
2022-07-31T05:34:46.895Z,24.50
2022-07-31T05:37:16.117Z,22.50
2022-07-31T05:39:44.003Z,24.73
2022-07-31T05:42:12.101Z,31.50
2022-07-31T05:44:39.985Z,23.63
2022-07-31T05:47:08.623Z,23.48
2022-07-31T05:49:36.567Z,26.55
2022-07-31T05:52:05.131Z,24.85
2022-07-31T05:54:34.821Z,27.85
2022-07-31T05:57:02.757Z,25.08
2022-07-31T05:59:32.300Z,25.67
2022-07-31T06:02:00.355Z,29.30
2022-07-31T06:04:28.425Z,24.67
2022-07-31T06:06:56.331Z,26.02
2022-07-31T06:09:25.367Z,29.77
2022-07-31T06:11:54.622Z,22.70
2022-07-31T06:14:22.521Z,23.52
2022-07-31T06:16:50.590Z,27.60
2022-07-31T06:19:20.270Z,27.38
2022-07-31T06:21:53.953Z,23.75
2022-07-31T06:24:22.097Z,24.90
2022-07-31T06:26:49.984Z,26.85
2022-07-31T06:29:19.382Z,23.38
2022-07-31T06:32:08.686Z,28.25
2022-07-31T06:34:36.617Z,30.73
2022-07-31T06:37:04.723Z,26.85
2022-07-31T06:39:54.264Z,26.42
2022-07-31T06:42:21.194Z,24.92
2022-07-31T06:44:50.670Z,27.65
2022-07-31T06:47:19.284Z,23.42
2022-07-31T06:49:47.475Z,21.73
2022-07-31T06:52:16.030Z,29.02
2022-07-31T06:54:44.084Z,27.33
2022-07-31T06:57:12.469Z,25.48
2022-07-31T06:59:40.966Z,25.65
2022-07-31T07:02:10.549Z,21.00
2022-07-31T07:05:06.166Z,25.95
2022-07-31T07:07:31.900Z,27.13
2022-07-31T07:10:00.096Z,28.55
2022-07-31T07:12:28.019Z,27.58
2022-07-31T07:14:56.406Z,29.50
2022-07-31T07:17:28.946Z,27.38
2022-07-31T07:19:57.675Z,27.90
2022-07-31T07:22:31.489Z,21.58
2022-07-31T07:25:00.890Z,30.00
2022-07-31T07:27:28.802Z,27.00
2022-07-31T07:29:57.449Z,26.30
2022-07-31T07:32:26.706Z,26.15
2022-07-31T07:35:00.218Z,25.20
2022-07-31T07:37:29.534Z,29.92
2022-07-31T07:39:57.507Z,25.38
2022-07-31T07:42:32.094Z,18.70
2022-07-31T07:45:00.053Z,23.85
2022-07-31T07:47:54.100Z,19.95
2022-07-31T07:50:19.342Z,23.05
2022-07-31T07:52:47.655Z,24.00
2022-07-31T07:55:15.606Z,22.30
2022-07-31T07:57:45.921Z,20.40
2022-07-31T08:00:16.149Z,25.05
2022-07-31T08:03:46.698Z,27.98
2022-07-31T08:05:34.037Z,21.40
2022-07-31T08:08:01.953Z,24.27
2022-07-31T08:10:29.972Z,19.88
2022-07-31T08:12:58.230Z,21.67
2022-07-31T08:15:26.524Z,21.73
2022-07-31T08:17:55.775Z,21.65
2022-07-31T08:20:23.749Z,27.40
2022-07-31T08:22:51.675Z,21.35
2022-07-31T08:25:19.730Z,24.88
2022-07-31T08:27:50.555Z,20.85
2022-07-31T08:30:18.628Z,22.42
2022-07-31T08:32:46.841Z,22.15
2022-07-31T08:35:16.134Z,22.20
2022-07-31T08:37:51.870Z,19.33
2022-07-31T08:40:32.748Z,22.60
2022-07-31T08:43:10.603Z,23.05
2022-07-31T08:45:52.514Z,21.55
2022-07-31T08:48:24.674Z,25.55
2022-07-31T08:50:56.169Z,26.25
2022-07-31T08:53:25.307Z,25.98
2022-07-31T08:55:56.372Z,26.38
2022-07-31T09:00:53.260Z,33.03
2022-07-31T09:03:21.266Z,29.83
2022-07-31T09:05:49.154Z,29.50
2022-07-31T09:08:18.454Z,31.02
2022-07-31T09:10:50.038Z,32.72
2022-07-31T09:13:19.845Z,27.33
2022-07-31T09:15:47.906Z,31.20
2022-07-31T09:18:19.738Z,26.35
2022-07-31T09:20:57.510Z,31.02
2022-07-31T09:23:28.227Z,30.02
2022-07-31T09:25:57.326Z,27.83
2022-07-31T09:28:34.482Z,30.75
2022-07-31T09:31:03.075Z,28.33
2022-07-31T09:33:31.711Z,27.45
2022-07-31T09:36:00.777Z,30.33
2022-07-31T09:38:34.486Z,27.70
2022-07-31T09:41:55.804Z,27.33
2022-07-31T09:44:09.896Z,30.40
2022-07-31T09:46:43.313Z,28.20
2022-07-31T09:49:12.345Z,26.15
2022-07-31T09:51:41.792Z,25.92
2022-07-31T09:54:21.854Z,24.67
2022-07-31T09:56:50.240Z,23.27
2022-07-31T09:59:18.348Z,22.55
2022-07-31T10:01:48.870Z,23.08
2022-07-31T10:04:18.900Z,21.08
2022-07-31T10:06:48.963Z,21.90
2022-07-31T10:09:19.801Z,19.17
2022-07-31T10:11:49.070Z,22.77
2022-07-31T10:14:22.047Z,20.30
2022-07-31T10:16:53.057Z,17.80
2022-07-31T10:19:22.082Z,18.80
2022-07-31T10:21:56.145Z,18.45
2022-07-31T10:24:28.649Z,15.82
2022-07-31T10:27:00.801Z,16.80
2022-07-31T10:29:32.949Z,13.32
2022-07-31T10:32:01.814Z,12.83
2022-07-31T10:34:30.294Z,10.20
2022-07-31T10:37:06.721Z,12.27
2022-07-31T10:39:50.532Z,11.15
2022-07-31T10:42:30.730Z,10.95
2022-07-31T10:45:07.653Z,12.23
2022-07-31T10:47:36.188Z,10.88
2022-07-31T10:50:05.214Z,12.38
2022-07-31T10:52:34.730Z,12.32
2022-07-31T10:55:15.138Z,9.68
2022-07-31T10:57:57.288Z,12.38
2022-07-31T11:00:28.348Z,10.57
2022-07-31T11:02:58.676Z,11.27
2022-07-31T11:05:28.008Z,11.82
2022-07-31T11:08:02.590Z,12.82
2022-07-31T11:10:34.038Z,9.55
2022-07-31T11:13:04.320Z,11.80
2022-07-31T11:15:32.976Z,11.75
2022-07-31T11:18:25.049Z,16.33
2022-07-31T11:21:13.553Z,12.32
2022-07-31T11:23:57.628Z,13.55
2022-07-31T11:26:41.746Z,14.68
2022-07-31T11:30:01.612Z,12.95
2022-07-31T11:32:02.032Z,15.35
2022-07-31T11:34:30.003Z,12.23
2022-07-31T11:36:58.053Z,13.38
2022-07-31T11:39:36.678Z,16.40
2022-07-31T11:42:07.640Z,11.80
2022-07-31T11:44:36.013Z,9.65
2022-07-31T11:47:04.143Z,10.98
2022-07-31T11:50:01.929Z,11.95
2022-07-31T11:52:30.811Z,11.95
2022-07-31T11:55:09.085Z,9.85
2022-07-31T11:57:51.346Z,13.40
2022-07-31T12:00:29.326Z,14.32
2022-07-31T12:02:58.908Z,9.68
2022-07-31T12:05:38.670Z,11.00
2022-07-31T12:08:07.817Z,10.13
2022-07-31T12:10:36.196Z,12.75
2022-07-31T12:13:05.452Z,11.25
2022-07-31T12:15:33.385Z,14.55
2022-07-31T12:18:02.819Z,12.27
2022-07-31T12:20:35.919Z,12.05
2022-07-31T12:23:06.196Z,10.65
2022-07-31T12:25:42.102Z,8.45
2022-07-31T12:28:13.985Z,7.72
2022-07-31T12:30:42.338Z,10.23
2022-07-31T12:33:11.794Z,9.10
2022-07-31T12:35:55.360Z,8.20
2022-07-31T12:38:47.562Z,9.88
2022-07-31T12:41:14.205Z,10.40
2022-07-31T12:43:51.380Z,11.15
2022-07-31T12:46:21.583Z,11.35
2022-07-31T12:48:49.588Z,8.68
2022-07-31T12:51:21.224Z,11.48
2022-07-31T12:54:09.046Z,8.07
2022-07-31T12:56:37.106Z,9.93
2022-07-31T12:59:07.229Z,11.32
2022-07-31T13:01:35.508Z,10.35
2022-07-31T13:04:04.751Z,8.07
2022-07-31T13:06:36.155Z,11.52
2022-07-31T13:09:04.425Z,12.80
2022-07-31T13:11:46.428Z,8.93
2022-07-31T13:14:17.971Z,11.93
2022-07-31T13:16:46.206Z,13.77
2022-07-31T13:19:14.659Z,13.43
2022-07-31T13:21:49.129Z,11.98
2022-07-31T13:24:18.728Z,12.40
2022-07-31T13:26:46.716Z,11.10
2022-07-31T13:29:14.867Z,12.10
2022-07-31T13:31:44.421Z,10.27
2022-07-31T13:34:12.629Z,12.75
2022-07-31T13:36:40.569Z,10.93
2022-07-31T13:39:08.607Z,10.15
2022-07-31T13:41:39.127Z,10.68
2022-07-31T13:44:08.017Z,11.52
2022-07-31T13:46:36.196Z,13.57
2022-07-31T13:49:08.602Z,10.80
2022-07-31T13:51:37.350Z,10.55
2022-07-31T13:54:05.563Z,10.95
2022-07-31T13:56:36.802Z,14.00
2022-07-31T13:59:11.233Z,14.07
2022-07-31T14:02:04.100Z,13.25
2022-07-31T14:04:32.333Z,18.63
2022-07-31T14:07:00.977Z,14.82
2022-07-31T14:09:29.221Z,14.20
2022-07-31T14:11:57.389Z,16.65
2022-07-31T14:14:25.480Z,16.95
2022-07-31T14:16:53.401Z,12.60
2022-07-31T14:19:21.469Z,12.60
2022-07-31T14:21:56.024Z,14.85
2022-07-31T14:24:25.764Z,14.27
2022-07-31T14:26:53.808Z,14.05
2022-07-31T14:29:21.781Z,14.77
2022-07-31T14:31:49.787Z,17.17
2022-07-31T14:34:17.720Z,14.68
2022-07-31T14:36:45.665Z,16.35
2022-07-31T14:39:14.937Z,15.77
2022-07-31T14:41:43.134Z,16.60
2022-07-31T14:44:11.053Z,14.63
2022-07-31T14:46:39.058Z,14.15
2022-07-31T14:49:08.606Z,13.70
2022-07-31T14:51:36.563Z,14.95
2022-07-31T14:54:05.141Z,16.17
2022-07-31T14:56:58.879Z,13.85
2022-07-31T14:59:22.877Z,14.82
2022-07-31T15:01:50.786Z,12.75
2022-07-31T15:04:18.706Z,15.18
2022-07-31T15:06:59.363Z,15.82
2022-07-31T15:09:34.525Z,15.23
2022-07-31T15:12:03.821Z,17.60
2022-07-31T15:14:32.030Z,17.25
2022-07-31T15:17:00.140Z,18.27
2022-07-31T15:19:28.031Z,14.73
2022-07-31T15:22:15.975Z,14.95
2022-07-31T15:24:49.066Z,17.70
2022-07-31T15:27:20.814Z,17.42
2022-07-31T15:30:00.270Z,14.48
2022-07-31T15:32:34.349Z,13.73
2022-07-31T15:35:02.931Z,20.70
2022-07-31T15:37:31.109Z,19.70
2022-07-31T15:40:02.402Z,17.23
2022-07-31T15:42:33.276Z,15.50
2022-07-31T15:45:01.242Z,20.02
2022-07-31T15:47:29.159Z,17.73
2022-07-31T15:49:57.095Z,18.58
2022-07-31T15:52:25.258Z,15.77
2022-07-31T15:54:53.414Z,16.75
2022-07-31T15:57:21.562Z,19.15
2022-07-31T15:59:54.482Z,18.35
2022-07-31T16:02:22.791Z,23.75
2022-07-31T16:04:52.709Z,17.77
2022-07-31T16:08:30.114Z,19.40
2022-07-31T16:10:16.322Z,22.73
2022-07-31T16:12:45.583Z,22.52
2022-07-31T16:15:16.184Z,18.33
2022-07-31T16:17:44.453Z,17.88
2022-07-31T16:20:26.362Z,22.45
2022-07-31T16:25:24.700Z,20.77
2022-07-31T16:27:52.743Z,17.08
2022-07-31T16:30:22.344Z,22.27
2022-07-31T16:32:51.425Z,21.33
2022-07-31T16:35:19.537Z,17.30
2022-07-31T16:37:52.686Z,19.65
2022-07-31T16:40:29.150Z,19.80
2022-07-31T16:43:00.879Z,22.27
2022-07-31T16:45:31.076Z,17.33
2022-07-31T16:47:59.156Z,14.55
2022-07-31T16:50:27.533Z,19.23
2022-07-31T16:52:55.657Z,20.75
2022-07-31T16:55:59.531Z,23.60
2022-07-31T16:58:13.909Z,22.70
2022-07-31T17:00:43.402Z,21.25
2022-07-31T17:04:01.258Z,19.40
2022-07-31T17:05:59.432Z,22.88
2022-07-31T17:08:28.851Z,22.42
2022-07-31T17:10:56.924Z,22.95
2022-07-31T17:13:24.837Z,20.85
2022-07-31T17:15:54.096Z,23.20
2022-07-31T17:18:25.164Z,21.45
2022-07-31T17:20:56.177Z,17.20
2022-07-31T17:23:43.195Z,15.57
2022-07-31T17:26:21.476Z,20.45
2022-07-31T17:28:50.699Z,20.90
2022-07-31T17:31:20.289Z,20.88
2022-07-31T17:33:58.434Z,18.17
2022-07-31T17:36:28.866Z,17.33
2022-07-31T17:38:56.922Z,21.42
2022-07-31T17:41:26.086Z,19.70
2022-07-31T17:43:54.614Z,18.60
2022-07-31T17:46:35.000Z,22.40
2022-07-31T17:49:05.970Z,24.50
2022-07-31T17:51:34.106Z,22.95
2022-07-31T17:54:02.266Z,22.38
2022-07-31T17:56:30.425Z,18.48
2022-07-31T17:59:04.333Z,21.60
2022-07-31T18:01:34.670Z,20.15
2022-07-31T18:04:03.256Z,22.17
2022-07-31T18:06:31.317Z,20.35
2022-07-31T18:08:59.397Z,25.05
2022-07-31T18:11:28.297Z,22.98
2022-07-31T18:14:01.068Z,24.02
2022-07-31T18:16:32.937Z,22.17
2022-07-31T18:19:00.882Z,22.00
2022-07-31T18:21:28.827Z,22.25
2022-07-31T18:23:57.716Z,21.63
2022-07-31T18:26:28.318Z,22.00
2022-07-31T18:28:56.394Z,24.52
2022-07-31T18:31:34.052Z,26.25
2022-07-31T18:34:05.783Z,25.52
2022-07-31T18:36:34.189Z,23.33
2022-07-31T18:39:03.060Z,20.58
2022-07-31T18:41:30.999Z,24.38
2022-07-31T18:43:58.954Z,27.88
2022-07-31T18:46:26.943Z,23.70
2022-07-31T18:48:56.635Z,23.80
2022-07-31T18:51:26.439Z,22.48
2022-07-31T18:53:54.951Z,29.65
2022-07-31T18:56:23.760Z,20.35
2022-07-31T18:58:51.817Z,22.63
2022-07-31T19:01:20.003Z,24.05
2022-07-31T19:03:48.050Z,21.10
2022-07-31T19:06:15.941Z,26.55
2022-07-31T19:08:46.037Z,22.95
2022-07-31T19:11:13.976Z,25.25
2022-07-31T19:13:41.880Z,20.38
2022-07-31T19:16:09.842Z,22.65
2022-07-31T19:18:40.258Z,21.25
2022-07-31T19:21:23.356Z,21.48
2022-07-31T19:23:58.032Z,22.40
2022-07-31T19:26:25.956Z,22.25
2022-07-31T19:28:53.862Z,28.02
2022-07-31T19:31:21.757Z,19.70
2022-07-31T19:33:49.801Z,24.40
2022-07-31T19:36:18.599Z,28.02
2022-07-31T19:38:46.515Z,23.80
2022-07-31T19:41:15.939Z,22.20
2022-07-31T19:43:45.545Z,31.10
2022-07-31T19:46:13.636Z,29.77
2022-07-31T19:48:43.228Z,26.40
2022-07-31T19:51:11.833Z,23.92
2022-07-31T19:53:40.109Z,26.02
2022-07-31T19:56:08.220Z,25.92
2022-07-31T19:58:38.303Z,26.50
2022-07-31T20:01:07.019Z,24.08
2022-07-31T20:03:35.567Z,23.02
2022-07-31T20:06:04.609Z,31.83
2022-07-31T20:08:33.261Z,32.92
2022-07-31T20:11:04.031Z,26.63
2022-07-31T20:13:33.008Z,26.38
2022-07-31T20:16:02.587Z,26.83
2022-07-31T20:18:30.910Z,30.92
2022-07-31T20:21:02.544Z,26.35
2022-07-31T20:23:33.945Z,29.65
2022-07-31T20:26:02.820Z,24.90
2022-07-31T20:28:30.807Z,24.70
2022-07-31T20:30:58.790Z,28.83
2022-07-31T20:33:28.085Z,30.70
2022-07-31T20:35:55.987Z,26.55
2022-07-31T20:38:25.154Z,25.00
2022-07-31T20:40:55.868Z,26.33
2022-07-31T20:43:25.117Z,26.15
2022-07-31T20:45:54.092Z,25.25
2022-07-31T20:48:24.574Z,25.85
2022-07-31T20:50:54.035Z,18.98
2022-07-31T20:53:23.050Z,18.92
2022-07-31T20:55:51.108Z,16.98
2022-07-31T20:58:19.978Z,16.80
2022-07-31T21:00:48.529Z,18.10
2022-07-31T21:03:17.795Z,20.40
2022-07-31T21:05:46.363Z,10.93
2022-07-31T21:08:15.638Z,10.82
2022-07-31T21:10:43.690Z,11.52
2022-07-31T21:13:11.661Z,10.45
2022-07-31T21:15:42.665Z,8.40
2022-07-31T21:18:13.677Z,10.10
2022-07-31T21:20:51.440Z,8.88
2022-07-31T21:23:23.325Z,8.38
2022-07-31T21:25:51.758Z,9.77
2022-07-31T21:28:20.417Z,11.43
2022-07-31T21:30:48.703Z,8.88
2022-07-31T21:33:18.001Z,9.05
2022-07-31T21:35:47.155Z,7.90
2022-07-31T21:38:16.068Z,8.20
2022-07-31T21:40:46.755Z,8.82
2022-07-31T21:43:16.971Z,9.35
2022-07-31T21:45:57.321Z,9.27
2022-07-31T21:48:29.991Z,10.45
2022-07-31T21:50:58.560Z,10.02
2022-07-31T21:53:26.658Z,10.82
2022-07-31T21:55:59.049Z,10.10
2022-07-31T21:58:29.138Z,8.85
2022-07-31T22:00:59.311Z,10.32
2022-07-31T22:03:27.237Z,9.38
2022-07-31T22:06:12.526Z,8.50
2022-07-31T22:08:40.553Z,10.80
2022-07-31T22:11:12.654Z,9.88
2022-07-31T22:13:40.633Z,10.15
2022-07-31T22:16:08.577Z,10.23
2022-07-31T22:18:36.859Z,7.30
2022-07-31T22:21:07.332Z,9.30
2022-07-31T22:23:36.366Z,8.30
2022-07-31T22:26:04.866Z,7.38
2022-07-31T22:28:34.735Z,8.57
2022-07-31T22:31:03.151Z,7.85
2022-07-31T22:33:31.340Z,7.78
2022-07-31T22:36:02.849Z,8.93
2022-07-31T22:38:31.722Z,7.03
2022-07-31T22:40:59.879Z,7.70
2022-07-31T22:44:11.540Z,9.32
2022-07-31T22:46:18.014Z,6.95
2022-07-31T22:48:46.730Z,7.25
2022-07-31T22:51:16.839Z,6.05
2022-07-31T22:53:48.693Z,6.65
2022-07-31T22:56:17.658Z,7.22
2022-07-31T22:58:45.691Z,6.75
2022-07-31T23:01:15.743Z,6.55
2022-07-31T23:03:45.178Z,7.57
2022-07-31T23:06:31.414Z,7.10
2022-07-31T23:09:01.504Z,6.78
2022-07-31T23:11:29.482Z,10.45
2022-07-31T23:13:57.464Z,8.63
2022-07-31T23:16:27.328Z,7.85
2022-07-31T23:18:56.768Z,8.63
2022-07-31T23:21:25.387Z,10.45
2022-07-31T23:23:53.605Z,7.90
2022-07-31T23:26:24.790Z,8.25
2022-07-31T23:28:53.857Z,8.88
2022-07-31T23:31:21.950Z,7.85
2022-07-31T23:33:50.213Z,7.97
2022-07-31T23:36:19.928Z,7.68
2022-07-31T23:38:48.317Z,8.70
2022-07-31T23:41:36.364Z,8.95
2022-07-31T23:44:03.702Z,7.82
2022-07-31T23:46:32.594Z,7.47
2022-07-31T23:49:00.681Z,10.73
2022-07-31T23:51:30.030Z,8.50
2022-07-31T23:53:58.014Z,8.73
2022-07-31T23:56:25.895Z,9.32
2022-07-31T23:58:53.761Z,11.43
